createdAt,value
2019-03-20T00:02:03.217Z,96611.95
2019-03-20T00:04:34.577Z,96610.34
2019-03-20T00:07:06.068Z,96614.27
2019-03-20T00:09:37.545Z,96620.89
2019-03-20T00:12:08.950Z,96618.00
2019-03-20T00:14:40.295Z,96620.20
2019-03-20T00:17:11.729Z,96628.27
2019-03-20T00:19:43.238Z,96627.17
2019-03-20T00:22:14.220Z,96625.88
2019-03-20T00:24:46.121Z,96621.97
2019-03-20T00:27:17.449Z,96625.70
2019-03-20T00:29:49.155Z,96622.17
2019-03-20T00:32:20.658Z,96624.84
2019-03-20T00:35:00.491Z,96621.02
2019-03-20T00:37:24.949Z,96614.20
2019-03-20T00:39:56.089Z,96616.84
2019-03-20T00:42:27.532Z,96627.50
2019-03-20T00:44:58.766Z,96634.34
2019-03-20T00:47:30.046Z,96628.39
2019-03-20T00:50:01.472Z,96635.91
2019-03-20T00:52:32.754Z,96630.85
2019-03-20T00:55:04.456Z,96627.52
2019-03-20T00:57:35.933Z,96621.79
2019-03-20T01:00:10.736Z,96633.56
2019-03-20T01:02:42.010Z,96621.37
2019-03-20T01:05:13.810Z,96636.88
2019-03-20T01:07:45.584Z,96634.72
2019-03-20T01:10:18.873Z,96632.45
2019-03-20T01:12:50.212Z,96622.97
2019-03-20T01:15:21.716Z,96636.69
2019-03-20T01:17:52.840Z,96637.45
2019-03-20T01:20:24.089Z,96634.45
2019-03-20T01:22:55.372Z,96631.34
2019-03-20T01:25:26.516Z,96628.08
2019-03-20T01:27:57.562Z,96628.41
2019-03-20T01:30:32.606Z,96619.56
2019-03-20T01:33:06.226Z,96611.06
2019-03-20T01:35:37.495Z,96613.20
2019-03-20T01:38:08.876Z,96620.11
2019-03-20T01:40:40.828Z,96622.13
2019-03-20T01:43:12.217Z,96624.14
2019-03-20T01:45:43.320Z,96628.88
2019-03-20T01:48:14.455Z,96627.96
2019-03-20T01:50:45.580Z,96621.98
2019-03-20T01:53:16.725Z,96622.63
2019-03-20T01:55:47.868Z,96615.00
2019-03-20T01:58:19.064Z,96611.33
2019-03-20T02:00:50.448Z,96610.52
2019-03-20T02:03:21.617Z,96623.25
2019-03-20T02:05:52.688Z,96624.14
2019-03-20T02:08:24.809Z,96618.20
2019-03-20T02:10:55.855Z,96616.86
2019-03-20T02:13:26.983Z,96618.67
2019-03-20T02:15:58.181Z,96609.19
2019-03-20T02:18:29.406Z,96614.88
2019-03-20T02:21:58.421Z,96618.89
2019-03-20T02:24:29.711Z,96618.58
2019-03-20T02:27:00.793Z,96610.44
2019-03-20T02:29:31.904Z,96606.56
2019-03-20T02:32:02.940Z,96610.34
2019-03-20T02:34:34.133Z,96617.02
2019-03-20T02:37:05.307Z,96614.61
2019-03-20T02:39:36.393Z,96612.87
2019-03-20T02:42:07.487Z,96609.06
2019-03-20T02:44:38.611Z,96603.82
2019-03-20T02:47:09.644Z,96602.07
2019-03-20T02:49:40.673Z,96612.04
2019-03-20T02:52:11.713Z,96615.33
2019-03-20T02:54:42.727Z,96613.00
2019-03-20T02:57:13.826Z,96604.04
2019-03-20T02:59:44.910Z,96598.81
2019-03-20T03:02:15.973Z,96600.58
2019-03-20T03:04:47.180Z,96601.95
2019-03-20T03:07:18.207Z,96596.52
2019-03-20T03:09:49.318Z,96594.53
2019-03-20T03:12:20.463Z,96597.84
2019-03-20T03:14:51.546Z,96593.83
2019-03-20T03:17:22.740Z,96599.77
2019-03-20T03:19:53.780Z,96595.59
2019-03-20T03:22:24.851Z,96601.23
2019-03-20T03:24:55.956Z,96605.36
2019-03-20T03:27:26.958Z,96600.95
2019-03-20T03:29:57.981Z,96597.64
2019-03-20T03:32:29.050Z,96607.58
2019-03-20T03:35:00.099Z,96613.77
2019-03-20T03:37:31.250Z,96618.36
2019-03-20T03:40:02.334Z,96611.97
2019-03-20T03:42:33.427Z,96622.15
2019-03-20T03:45:05.205Z,96616.23
2019-03-20T03:47:36.310Z,96616.98
2019-03-20T03:50:08.345Z,96619.20
2019-03-20T03:52:39.459Z,96625.27
2019-03-20T03:55:11.832Z,96622.38
2019-03-20T03:57:43.320Z,96629.83
2019-03-20T04:00:15.514Z,96628.69
2019-03-20T04:02:46.683Z,96635.06
2019-03-20T04:05:17.792Z,96627.61
2019-03-20T04:07:48.907Z,96628.35
2019-03-20T04:10:20.083Z,96636.27
2019-03-20T04:12:52.134Z,96637.85
2019-03-20T04:15:23.364Z,96642.44
2019-03-20T04:17:54.550Z,96639.39
2019-03-20T04:20:25.578Z,96646.72
2019-03-20T04:22:56.576Z,96649.78
2019-03-20T04:25:27.616Z,96648.72
2019-03-20T04:28:00.444Z,96646.49
2019-03-20T04:30:31.461Z,96645.45
2019-03-20T04:33:02.704Z,96647.28
2019-03-20T04:35:33.763Z,96645.71
2019-03-20T04:38:05.876Z,96642.78
2019-03-20T04:40:36.967Z,96641.44
2019-03-20T04:43:08.141Z,96647.59
2019-03-20T04:45:39.164Z,96658.64
2019-03-20T04:48:10.185Z,96650.11
2019-03-20T04:50:41.374Z,96654.77
2019-03-20T04:53:12.449Z,96658.48
2019-03-20T04:55:43.570Z,96662.05
2019-03-20T04:58:14.609Z,96667.05
2019-03-20T05:00:45.809Z,96666.19
2019-03-20T05:03:16.850Z,96671.65
2019-03-20T05:05:47.908Z,96662.17
2019-03-20T05:08:18.987Z,96666.88
2019-03-20T05:10:50.249Z,96667.05
2019-03-20T05:13:21.382Z,96680.84
2019-03-20T05:15:52.515Z,96685.81
2019-03-20T05:18:23.640Z,96686.97
2019-03-20T05:20:54.920Z,96696.70
2019-03-20T05:23:25.982Z,96700.41
2019-03-20T05:25:57.229Z,96698.06
2019-03-20T05:28:28.456Z,96701.89
2019-03-20T05:30:59.619Z,96706.45
2019-03-20T05:33:30.758Z,96718.63
2019-03-20T05:36:01.956Z,96725.13
2019-03-20T05:38:36.032Z,96719.45
2019-03-20T05:41:07.164Z,96714.63
2019-03-20T05:43:38.254Z,96728.97
2019-03-20T05:46:09.313Z,96729.59
2019-03-20T05:48:40.373Z,96718.66
2019-03-20T05:51:11.495Z,96722.13
2019-03-20T05:53:42.725Z,96725.53
2019-03-20T05:56:13.759Z,96731.88
2019-03-20T05:58:44.848Z,96731.37
2019-03-20T06:01:15.939Z,96733.83
2019-03-20T06:03:47.048Z,96739.81
2019-03-20T06:06:18.149Z,96735.52
2019-03-20T06:08:49.232Z,96737.52
2019-03-20T06:11:20.340Z,96739.37
2019-03-20T06:13:51.384Z,96748.13
2019-03-20T06:16:22.426Z,96748.36
2019-03-20T06:18:53.459Z,96748.05
2019-03-20T06:21:24.509Z,96756.00
2019-03-20T06:23:55.557Z,96755.52
2019-03-20T06:26:26.620Z,96757.28
2019-03-20T06:28:57.740Z,96759.74
2019-03-20T06:31:28.815Z,96754.20
2019-03-20T06:33:59.842Z,96756.51
2019-03-20T06:36:30.933Z,96759.27
2019-03-20T06:39:01.974Z,96761.80
2019-03-20T06:41:34.316Z,96769.87
2019-03-20T06:44:05.662Z,96765.05
2019-03-20T06:46:36.774Z,96762.02
2019-03-20T06:49:08.141Z,96764.13
2019-03-20T06:51:39.529Z,96765.64
2019-03-20T06:54:10.596Z,96769.10
2019-03-20T06:56:41.661Z,96771.45
2019-03-20T07:00:12.123Z,96769.20
2019-03-20T07:02:47.908Z,96767.88
2019-03-20T07:05:53.231Z,96771.05
2019-03-20T07:08:29.504Z,96777.02
2019-03-20T07:11:18.029Z,96777.86
2019-03-20T07:13:50.607Z,96780.31
2019-03-20T07:16:22.142Z,96786.83
2019-03-20T07:18:53.176Z,96788.43
2019-03-20T07:21:24.193Z,96788.44
2019-03-20T07:23:55.223Z,96789.83
2019-03-20T07:26:28.646Z,96784.95
2019-03-20T07:28:59.055Z,96788.16
2019-03-20T07:31:31.147Z,96786.69
2019-03-20T07:34:02.200Z,96790.65
2019-03-20T07:36:33.391Z,96787.02
2019-03-20T07:39:06.907Z,96790.46
2019-03-20T07:41:38.022Z,96789.12
2019-03-20T07:44:09.230Z,96793.19
2019-03-20T07:46:40.248Z,96793.58
2019-03-20T07:49:11.298Z,96790.52
2019-03-20T07:51:42.330Z,96786.06
2019-03-20T07:54:13.379Z,96783.03
2019-03-20T07:56:44.486Z,96784.09
2019-03-20T07:59:15.526Z,96788.38
2019-03-20T08:01:46.685Z,96778.61
2019-03-20T08:04:17.864Z,96779.70
2019-03-20T08:06:49.082Z,96779.91
2019-03-20T08:09:20.267Z,96778.61
2019-03-20T08:11:51.297Z,96786.36
2019-03-20T08:14:22.905Z,96789.06
2019-03-20T08:16:53.955Z,96794.36
2019-03-20T08:19:25.062Z,96800.17
2019-03-20T08:21:56.093Z,96793.50
2019-03-20T08:24:27.132Z,96795.86
2019-03-20T08:26:58.160Z,96786.79
2019-03-20T08:29:29.201Z,96796.55
2019-03-20T08:32:00.384Z,96793.20
2019-03-20T08:34:32.380Z,96803.91
2019-03-20T08:37:03.481Z,96808.18
2019-03-20T08:39:34.518Z,96799.72
2019-03-20T08:44:54.835Z,96793.22
2019-03-20T08:47:25.865Z,96802.47
2019-03-20T08:49:57.024Z,96802.39
2019-03-20T08:52:28.152Z,96802.76
2019-03-20T08:54:59.234Z,96800.05
2019-03-20T08:57:30.252Z,96803.41
2019-03-20T09:00:02.607Z,96801.72
2019-03-20T09:02:34.023Z,96799.34
2019-03-20T09:05:06.598Z,96800.13
2019-03-20T09:07:46.869Z,96805.45
2019-03-20T09:10:17.599Z,96797.01
2019-03-20T09:12:48.801Z,96799.34
2019-03-20T09:15:20.365Z,96812.38
2019-03-20T09:17:51.441Z,96805.92
2019-03-20T09:20:22.628Z,96808.73
2019-03-20T09:22:53.703Z,96814.23
2019-03-20T09:25:24.837Z,96808.57
2019-03-20T09:27:55.982Z,96806.24
2019-03-20T09:30:27.216Z,96804.61
2019-03-20T09:32:58.551Z,96811.66
2019-03-20T09:35:29.572Z,96813.64
2019-03-20T09:38:00.655Z,96808.41
2019-03-20T09:40:31.832Z,96802.44
2019-03-20T09:43:02.867Z,96811.09
2019-03-20T09:45:33.900Z,96811.78
2019-03-20T09:48:05.117Z,96816.30
2019-03-20T09:50:36.111Z,96808.83
2019-03-20T09:53:07.134Z,96807.27
2019-03-20T09:55:38.181Z,96805.73
2019-03-20T09:58:11.753Z,96814.64
2019-03-20T10:00:42.196Z,96816.41
2019-03-20T10:03:13.300Z,96815.87
2019-03-20T10:05:44.475Z,96811.44
2019-03-20T10:08:15.515Z,96819.83
2019-03-20T10:10:46.535Z,96813.31
2019-03-20T10:13:17.669Z,96813.20
2019-03-20T10:15:48.671Z,96800.25
2019-03-20T10:18:19.870Z,96801.23
2019-03-20T10:20:51.051Z,96804.70
2019-03-20T10:23:22.241Z,96814.08
2019-03-20T10:25:53.446Z,96812.55
2019-03-20T10:28:24.637Z,96816.86
2019-03-20T10:30:55.650Z,96812.88
2019-03-20T10:33:26.841Z,96814.07
2019-03-20T10:35:57.869Z,96806.47
2019-03-20T10:38:29.008Z,96808.61
2019-03-20T10:41:00.142Z,96803.67
2019-03-20T10:43:31.267Z,96813.59
2019-03-20T10:46:02.644Z,96803.59
2019-03-20T10:48:33.747Z,96822.76
2019-03-20T10:51:06.070Z,96813.13
2019-03-20T10:53:37.137Z,96818.52
2019-03-20T10:56:08.255Z,96813.13
2019-03-20T10:58:39.321Z,96816.13
2019-03-20T11:01:10.475Z,96814.44
2019-03-20T11:03:42.028Z,96812.40
2019-03-20T11:06:13.098Z,96814.25
2019-03-20T11:08:44.212Z,96810.65
2019-03-20T11:11:26.351Z,96813.70
2019-03-20T11:13:48.165Z,96825.89
2019-03-20T11:16:19.331Z,96831.03
2019-03-20T11:18:51.359Z,96832.92
2019-03-20T11:21:22.671Z,96837.34
2019-03-20T11:23:53.808Z,96831.54
2019-03-20T11:26:24.876Z,96829.63
2019-03-20T11:28:55.929Z,96842.16
2019-03-20T11:31:27.012Z,96841.54
2019-03-20T11:33:58.055Z,96830.39
2019-03-20T11:36:29.206Z,96835.01
2019-03-20T11:39:00.329Z,96834.10
2019-03-20T11:41:33.354Z,96834.41
2019-03-20T11:44:05.904Z,96822.78
2019-03-20T11:46:37.084Z,96821.49
2019-03-20T11:49:08.212Z,96823.90
2019-03-20T11:51:39.254Z,96825.95
2019-03-20T11:54:10.319Z,96821.61
2019-03-20T11:56:41.376Z,96822.36
2019-03-20T11:59:12.430Z,96820.86
2019-03-20T12:01:43.651Z,96807.73
2019-03-20T12:04:14.766Z,96814.84
2019-03-20T12:06:45.937Z,96813.63
2019-03-20T12:09:17.120Z,96812.65
2019-03-20T12:11:48.240Z,96811.09
2019-03-20T12:14:19.515Z,96810.66
2019-03-20T12:16:50.677Z,96818.81
2019-03-20T12:19:21.710Z,96813.14
2019-03-20T12:21:52.799Z,96821.02
2019-03-20T12:24:23.845Z,96816.63
2019-03-20T12:26:55.888Z,96815.03
2019-03-20T12:29:27.037Z,96820.75
2019-03-20T12:31:58.128Z,96821.89
2019-03-20T12:34:29.187Z,96805.44
2019-03-20T12:37:00.331Z,96804.23
2019-03-20T12:39:31.440Z,96797.96
2019-03-20T12:42:02.583Z,96802.11
2019-03-20T12:44:33.700Z,96797.57
2019-03-20T12:47:04.778Z,96787.52
2019-03-20T12:49:36.076Z,96797.00
2019-03-20T12:52:07.343Z,96784.78
2019-03-20T12:54:38.445Z,96784.24
2019-03-20T12:57:09.612Z,96777.84
2019-03-20T12:59:40.717Z,96778.03
2019-03-20T13:02:11.870Z,96795.55
2019-03-20T13:04:42.937Z,96786.17
2019-03-20T13:07:14.041Z,96787.02
2019-03-20T13:09:46.426Z,96785.08
2019-03-20T13:12:18.002Z,96775.20
2019-03-20T13:14:49.154Z,96782.38
2019-03-20T13:17:20.288Z,96772.72
2019-03-20T13:19:51.465Z,96763.86
2019-03-20T13:22:22.684Z,96767.91
2019-03-20T13:24:53.727Z,96764.17
2019-03-20T13:27:24.877Z,96758.71
2019-03-20T13:29:55.985Z,96759.83
2019-03-20T13:32:27.043Z,96756.06
2019-03-20T13:34:58.183Z,96755.55
2019-03-20T13:37:29.239Z,96762.27
2019-03-20T13:40:00.354Z,96765.61
2019-03-20T13:42:31.527Z,96756.62
2019-03-20T13:45:02.645Z,96751.95
2019-03-20T13:47:33.711Z,96748.20
2019-03-20T13:50:05.723Z,96746.54
2019-03-20T13:52:36.802Z,96751.26
2019-03-20T13:55:08.610Z,96750.81
2019-03-20T13:57:39.754Z,96751.88
2019-03-20T14:00:17.562Z,96746.56
2019-03-20T14:02:48.705Z,96754.06
2019-03-20T14:05:19.926Z,96750.86
2019-03-20T14:07:51.148Z,96747.09
2019-03-20T14:10:25.355Z,96739.63
2019-03-20T14:12:55.341Z,96732.56
2019-03-20T14:15:26.743Z,96748.42
2019-03-20T14:17:57.904Z,96734.72
2019-03-20T14:20:29.304Z,96743.83
2019-03-20T14:23:00.447Z,96748.45
2019-03-20T14:25:31.592Z,96742.89
2019-03-20T14:28:02.691Z,96742.33
2019-03-20T14:30:33.966Z,96736.81
2019-03-20T14:33:05.185Z,96733.19
2019-03-20T14:35:36.277Z,96726.72
2019-03-20T14:38:07.496Z,96720.99
2019-03-20T14:40:38.690Z,96725.98
2019-03-20T14:43:09.849Z,96728.19
2019-03-20T14:45:41.055Z,96731.37
2019-03-20T14:48:12.098Z,96735.11
2019-03-20T14:50:43.235Z,96727.72
2019-03-20T14:53:14.389Z,96719.62
2019-03-20T14:55:45.447Z,96725.77
2019-03-20T14:58:17.224Z,96720.42
2019-03-20T15:00:48.346Z,96718.94
2019-03-20T15:03:19.585Z,96720.17
2019-03-20T15:05:50.839Z,96723.69
2019-03-20T15:08:21.955Z,96729.38
2019-03-20T15:10:53.365Z,96727.88
2019-03-20T15:13:25.320Z,96719.06
2019-03-20T15:16:08.457Z,96719.62
2019-03-20T15:18:39.542Z,96711.70
2019-03-20T15:21:10.676Z,96709.72
2019-03-20T15:23:41.877Z,96702.48
2019-03-20T15:26:13.038Z,96701.84
2019-03-20T15:28:44.176Z,96715.09
2019-03-20T15:31:15.228Z,96717.70
2019-03-20T15:33:46.354Z,96719.73
2019-03-20T15:36:17.487Z,96709.60
2019-03-20T15:38:48.784Z,96714.53
2019-03-20T15:41:19.927Z,96708.40
2019-03-20T15:43:51.086Z,96721.59
2019-03-20T15:46:22.127Z,96717.06
2019-03-20T15:48:53.173Z,96722.52
2019-03-20T15:51:24.233Z,96720.95
2019-03-20T15:53:55.367Z,96718.45
2019-03-20T15:56:26.505Z,96710.80
2019-03-20T15:58:57.543Z,96714.67
2019-03-20T16:01:28.615Z,96701.48
2019-03-20T16:03:59.735Z,96711.41
2019-03-20T16:06:30.803Z,96709.94
2019-03-20T16:09:01.864Z,96706.89
2019-03-20T16:11:34.002Z,96711.75
2019-03-20T16:14:05.253Z,96718.09
2019-03-20T16:16:36.512Z,96722.88
2019-03-20T16:19:07.798Z,96728.43
2019-03-20T16:21:38.976Z,96727.50
2019-03-20T16:24:10.149Z,96726.59
2019-03-20T16:26:41.230Z,96729.95
2019-03-20T16:29:12.282Z,96736.20
2019-03-20T16:31:43.368Z,96738.30
2019-03-20T16:34:14.425Z,96735.15
2019-03-20T16:36:45.601Z,96733.79
2019-03-20T16:39:16.715Z,96739.57
2019-03-20T16:41:47.806Z,96736.07
2019-03-20T16:44:18.899Z,96744.16
2019-03-20T16:46:50.002Z,96748.55
2019-03-20T16:49:21.101Z,96751.41
2019-03-20T16:51:52.227Z,96748.12
2019-03-20T16:54:23.303Z,96755.54
2019-03-20T16:56:54.444Z,96757.24
2019-03-20T16:59:25.620Z,96758.30
2019-03-20T17:01:56.751Z,96763.69
2019-03-20T17:04:27.776Z,96764.58
2019-03-20T17:06:58.861Z,96765.88
2019-03-20T17:09:29.986Z,96769.70
2019-03-20T17:12:01.047Z,96766.09
2019-03-20T17:14:32.210Z,96770.78
2019-03-20T17:17:03.461Z,96775.08
2019-03-20T17:19:34.610Z,96776.00
2019-03-20T17:22:05.964Z,96783.07
2019-03-20T17:24:37.071Z,96789.80
2019-03-20T17:27:08.300Z,96786.05
2019-03-20T17:29:39.378Z,96794.08
2019-03-20T17:32:10.625Z,96802.88
2019-03-20T17:34:41.776Z,96803.55
2019-03-20T17:37:12.975Z,96809.23
2019-03-20T17:39:44.060Z,96813.15
2019-03-20T17:42:16.037Z,96810.58
2019-03-20T17:44:47.171Z,96805.98
2019-03-20T17:47:18.371Z,96806.74
2019-03-20T17:49:49.439Z,96806.69
2019-03-20T17:52:20.557Z,96807.00
2019-03-20T17:54:51.632Z,96811.33
2019-03-20T17:57:22.786Z,96812.39
2019-03-20T17:59:53.904Z,96816.27
2019-03-20T18:02:25.203Z,96815.78
2019-03-20T18:04:56.318Z,96817.08
2019-03-20T18:07:27.497Z,96822.78
2019-03-20T18:09:58.610Z,96823.16
2019-03-20T18:12:29.805Z,96829.30
2019-03-20T18:15:02.049Z,96828.07
2019-03-20T18:17:33.470Z,96827.11
2019-03-20T18:20:05.516Z,96829.91
2019-03-20T18:22:36.604Z,96825.48
2019-03-20T18:25:09.358Z,96829.92
2019-03-20T18:27:40.558Z,96826.09
2019-03-20T18:30:22.514Z,96831.55
2019-03-20T18:32:53.821Z,96836.42
2019-03-20T18:35:25.169Z,96833.48
2019-03-20T18:37:56.437Z,96829.17
2019-03-20T18:40:27.922Z,96836.52
2019-03-20T18:42:59.257Z,96841.23
2019-03-20T18:45:30.508Z,96844.65
2019-03-20T18:48:01.623Z,96853.91
2019-03-20T18:50:32.905Z,96862.74
2019-03-20T18:53:04.282Z,96870.13
2019-03-20T18:55:35.313Z,96882.47
2019-03-20T18:58:06.404Z,96883.15
2019-03-20T19:00:37.619Z,96874.27
2019-03-20T19:03:09.056Z,96865.75
2019-03-20T19:06:10.939Z,96871.91
2019-03-20T19:08:42.071Z,96867.09
2019-03-20T19:11:13.223Z,96852.78
2019-03-20T19:13:44.367Z,96857.70
2019-03-20T19:16:15.435Z,96856.41
2019-03-20T19:18:46.541Z,96869.30
2019-03-20T19:21:17.583Z,96881.99
2019-03-20T19:23:48.654Z,96878.36
2019-03-20T19:26:19.890Z,96872.90
2019-03-20T19:28:51.054Z,96878.33
2019-03-20T19:31:22.164Z,96875.58
2019-03-20T19:33:53.284Z,96877.06
2019-03-20T19:36:24.372Z,96877.06
2019-03-20T19:38:55.522Z,96881.19
2019-03-20T19:41:26.632Z,96872.16
2019-03-20T19:43:57.703Z,96874.59
2019-03-20T19:46:28.798Z,96879.11
2019-03-20T19:48:59.921Z,96879.23
2019-03-20T19:51:30.915Z,96881.34
2019-03-20T19:54:03.058Z,96880.44
2019-03-20T19:56:34.321Z,96879.23
2019-03-20T19:59:05.736Z,96880.13
2019-03-20T20:01:36.764Z,96884.17
2019-03-20T20:04:07.806Z,96892.56
2019-03-20T20:06:38.829Z,96888.16
2019-03-20T20:09:09.942Z,96894.36
2019-03-20T20:11:41.109Z,96900.14
2019-03-20T20:14:12.319Z,96902.47
2019-03-20T20:16:43.341Z,96891.79
2019-03-20T20:19:14.394Z,96895.18
2019-03-20T20:21:45.447Z,96892.98
2019-03-20T20:24:16.544Z,96887.39
2019-03-20T20:26:47.711Z,96895.30
2019-03-20T20:29:18.777Z,96898.81
2019-03-20T20:31:49.942Z,96899.43
2019-03-20T20:34:21.189Z,96907.98
2019-03-20T20:36:52.410Z,96920.98
2019-03-20T20:39:23.550Z,96919.59
2019-03-20T20:41:54.587Z,96907.83
2019-03-20T20:44:25.818Z,96912.62
2019-03-20T20:46:57.082Z,96913.23
2019-03-20T20:49:28.128Z,96908.81
2019-03-20T20:51:59.229Z,96922.50
2019-03-20T20:54:30.280Z,96918.98
2019-03-20T20:57:01.373Z,96921.98
2019-03-20T20:59:32.424Z,96923.86
2019-03-20T21:02:03.505Z,96930.45
2019-03-20T21:04:34.888Z,96925.02
2019-03-20T21:07:06.046Z,96932.62
2019-03-20T21:09:37.176Z,96929.79
2019-03-20T21:12:08.426Z,96937.96
2019-03-20T21:14:39.451Z,96932.53
2019-03-20T21:17:18.890Z,96939.70
2019-03-20T21:19:50.889Z,96932.91
2019-03-20T21:23:28.635Z,96928.33
2019-03-20T21:26:03.333Z,96932.30
2019-03-20T21:32:43.918Z,96941.31
2019-03-20T21:36:20.440Z,96939.02
2019-03-20T21:38:52.362Z,96936.39
2019-03-20T21:42:42.097Z,96934.64
2019-03-20T21:46:31.854Z,96930.34
2019-03-20T21:49:03.859Z,96926.72
2019-03-20T21:51:35.871Z,96919.63
2019-03-20T21:55:16.709Z,96916.65
2019-03-20T21:58:24.013Z,96915.88
2019-03-20T22:02:00.670Z,96917.23
2019-03-20T22:04:32.715Z,96913.64
2019-03-20T22:07:13.258Z,96921.92
2019-03-20T22:10:51.690Z,96920.83
2019-03-20T22:13:38.436Z,96922.00
2019-03-20T22:17:07.932Z,96924.48
2019-03-20T22:20:00.992Z,96914.19
2019-03-20T22:23:26.774Z,96914.77
2019-03-20T22:26:36.489Z,96921.35
2019-03-20T22:29:25.661Z,96914.19
2019-03-20T22:32:35.775Z,96912.95
2019-03-20T22:36:02.137Z,96916.27
2019-03-20T22:39:21.491Z,96912.37
2019-03-20T22:42:19.166Z,96903.27
2019-03-20T22:45:38.241Z,96894.38
2019-03-20T22:48:40.712Z,96897.75
2019-03-20T22:51:43.041Z,96896.52
2019-03-20T22:55:06.157Z,96893.63
2019-03-20T22:58:22.983Z,96900.42
2019-03-20T23:00:55.867Z,96889.77
2019-03-20T23:03:35.316Z,96894.91
2019-03-20T23:06:07.440Z,96886.98
2019-03-20T23:08:39.590Z,96888.91
2019-03-20T23:11:11.565Z,96894.64
2019-03-20T23:13:43.573Z,96891.09
2019-03-20T23:16:17.545Z,96891.80
2019-03-20T23:18:49.562Z,96885.00
2019-03-20T23:21:21.472Z,96887.80
2019-03-20T23:23:53.531Z,96893.11
2019-03-20T23:26:25.614Z,96885.05
2019-03-20T23:28:57.836Z,96890.07
2019-03-20T23:31:29.822Z,96889.86
2019-03-20T23:34:01.741Z,96891.82
2019-03-20T23:36:33.657Z,96889.86
2019-03-20T23:39:07.912Z,96893.20
2019-03-20T23:41:39.835Z,96892.58
2019-03-20T23:44:11.812Z,96886.52
2019-03-20T23:46:43.814Z,96882.73
2019-03-20T23:49:20.065Z,96880.41
2019-03-20T23:51:52.245Z,96882.05
2019-03-20T23:54:29.637Z,96880.56
2019-03-20T23:57:01.706Z,96883.39
2019-03-20T23:59:34.653Z,96876.08
